sensor_id;sensor_type;location;lat;lon;timestamp;temperature;humidity
50586;DHT22;36542;51.700;8.846;2023-06-22T00:02:25;17.30;99.90
50586;DHT22;36542;51.700;8.846;2023-06-22T00:04:50;17.20;99.90
50586;DHT22;36542;51.700;8.846;2023-06-22T00:07:16;17.10;99.90
50586;DHT22;36542;51.700;8.846;2023-06-22T00:09:41;17.00;99.90
50586;DHT22;36542;51.700;8.846;2023-06-22T00:12:07;16.90;99.90
50586;DHT22;36542;51.700;8.846;2023-06-22T00:14:33;16.90;99.90
50586;DHT22;36542;51.700;8.846;2023-06-22T00:16:58;17.00;99.90
50586;DHT22;36542;51.700;8.846;2023-06-22T00:19:24;17.00;99.90
50586;DHT22;36542;51.700;8.846;2023-06-22T00:21:50;17.00;99.90
50586;DHT22;36542;51.700;8.846;2023-06-22T00:24:22;17.00;99.90
50586;DHT22;36542;51.700;8.846;2023-06-22T00:26:48;16.90;99.90
50586;DHT22;36542;51.700;8.846;2023-06-22T00:29:14;17.00;99.90
50586;DHT22;36542;51.700;8.846;2023-06-22T00:31:40;17.00;99.90
50586;DHT22;36542;51.700;8.846;2023-06-22T00:34:05;16.90;99.90
50586;DHT22;36542;51.700;8.846;2023-06-22T00:36:32;16.90;99.90
50586;DHT22;36542;51.700;8.846;2023-06-22T00:38:57;16.90;99.90
50586;DHT22;36542;51.700;8.846;2023-06-22T00:41:23;16.90;99.90
50586;DHT22;36542;51.700;8.846;2023-06-22T00:43:48;16.90;99.90
50586;DHT22;36542;51.700;8.846;2023-06-22T00:46:14;17.00;99.90
50586;DHT22;36542;51.700;8.846;2023-06-22T00:48:40;17.10;99.90
50586;DHT22;36542;51.700;8.846;2023-06-22T00:51:07;17.00;99.90
50586;DHT22;36542;51.700;8.846;2023-06-22T00:53:33;17.00;99.90
50586;DHT22;36542;51.700;8.846;2023-06-22T00:56:00;17.00;99.90
50586;DHT22;36542;51.700;8.846;2023-06-22T00:58:26;17.10;99.90
50586;DHT22;36542;51.700;8.846;2023-06-22T01:00:51;17.10;99.90
50586;DHT22;36542;51.700;8.846;2023-06-22T01:03:17;17.00;99.90
50586;DHT22;36542;51.700;8.846;2023-06-22T01:05:44;17.00;99.90
50586;DHT22;36542;51.700;8.846;2023-06-22T01:16:27;17.10;99.90
50586;DHT22;36542;51.700;8.846;2023-06-22T01:18:57;17.20;99.90
50586;DHT22;36542;51.700;8.846;2023-06-22T01:21:28;17.20;99.90
50586;DHT22;36542;51.700;8.846;2023-06-22T01:24:10;17.30;99.90
50586;DHT22;36542;51.700;8.846;2023-06-22T01:26:46;17.20;99.90
50586;DHT22;36542;51.700;8.846;2023-06-22T01:29:18;17.10;99.90
50586;DHT22;36542;51.700;8.846;2023-06-22T01:31:45;17.20;99.90
50586;DHT22;36542;51.700;8.846;2023-06-22T01:34:12;17.20;99.90
50586;DHT22;36542;51.700;8.846;2023-06-22T01:36:39;17.30;99.90
50586;DHT22;36542;51.700;8.846;2023-06-22T01:39:05;17.40;99.90
50586;DHT22;36542;51.700;8.846;2023-06-22T01:41:35;17.50;99.90
50586;DHT22;36542;51.700;8.846;2023-06-22T01:44:01;17.50;99.90
50586;DHT22;36542;51.700;8.846;2023-06-22T01:46:29;17.40;99.90
50586;DHT22;36542;51.700;8.846;2023-06-22T01:48:55;17.40;99.90
50586;DHT22;36542;51.700;8.846;2023-06-22T01:51:21;17.30;99.90
50586;DHT22;36542;51.700;8.846;2023-06-22T01:53:46;17.30;99.90
50586;DHT22;36542;51.700;8.846;2023-06-22T01:56:13;17.30;99.90
50586;DHT22;36542;51.700;8.846;2023-06-22T01:58:50;17.40;99.90
50586;DHT22;36542;51.700;8.846;2023-06-22T02:01:20;17.30;99.90
50586;DHT22;36542;51.700;8.846;2023-06-22T02:03:57;17.30;99.90
50586;DHT22;36542;51.700;8.846;2023-06-22T02:06:33;17.30;99.90
50586;DHT22;36542;51.700;8.846;2023-06-22T02:09:03;17.20;99.90
50586;DHT22;36542;51.700;8.846;2023-06-22T02:11:31;17.20;99.90
50586;DHT22;36542;51.700;8.846;2023-06-22T02:13:58;17.30;99.90
50586;DHT22;36542;51.700;8.846;2023-06-22T02:16:24;17.40;99.90
50586;DHT22;36542;51.700;8.846;2023-06-22T02:18:51;17.50;99.90
50586;DHT22;36542;51.700;8.846;2023-06-22T02:21:20;17.50;99.90
50586;DHT22;36542;51.700;8.846;2023-06-22T02:23:46;17.60;99.90
50586;DHT22;36542;51.700;8.846;2023-06-22T02:26:12;17.60;99.90
50586;DHT22;36542;51.700;8.846;2023-06-22T02:28:38;17.60;99.90
50586;DHT22;36542;51.700;8.846;2023-06-22T02:31:04;17.60;99.90
50586;DHT22;36542;51.700;8.846;2023-06-22T02:33:30;17.60;99.90
50586;DHT22;36542;51.700;8.846;2023-06-22T02:35:55;17.60;99.90
50586;DHT22;36542;51.700;8.846;2023-06-22T02:38:21;17.50;99.90
50586;DHT22;36542;51.700;8.846;2023-06-22T02:40:46;17.50;99.90
50586;DHT22;36542;51.700;8.846;2023-06-22T02:43:12;17.60;99.90
50586;DHT22;36542;51.700;8.846;2023-06-22T02:45:38;17.60;99.90
50586;DHT22;36542;51.700;8.846;2023-06-22T02:48:04;17.70;99.90
50586;DHT22;36542;51.700;8.846;2023-06-22T02:50:30;17.80;99.90
50586;DHT22;36542;51.700;8.846;2023-06-22T02:52:55;17.80;99.90
50586;DHT22;36542;51.700;8.846;2023-06-22T02:55:21;17.90;99.90
50586;DHT22;36542;51.700;8.846;2023-06-22T02:57:46;18.00;99.90
50586;DHT22;36542;51.700;8.846;2023-06-22T03:00:13;18.20;99.90
50586;DHT22;36542;51.700;8.846;2023-06-22T03:02:46;18.20;99.90
50586;DHT22;36542;51.700;8.846;2023-06-22T03:05:13;18.20;99.90
50586;DHT22;36542;51.700;8.846;2023-06-22T03:07:44;18.10;99.90
50586;DHT22;36542;51.700;8.846;2023-06-22T03:10:10;18.10;99.90
50586;DHT22;36542;51.700;8.846;2023-06-22T03:12:39;17.90;99.90
50586;DHT22;36542;51.700;8.846;2023-06-22T03:15:08;17.80;99.90
50586;DHT22;36542;51.700;8.846;2023-06-22T03:17:35;17.90;99.90
50586;DHT22;36542;51.700;8.846;2023-06-22T03:20:04;18.00;99.90
50586;DHT22;36542;51.700;8.846;2023-06-22T03:22:35;18.10;99.90
50586;DHT22;36542;51.700;8.846;2023-06-22T03:25:01;18.00;99.90
50586;DHT22;36542;51.700;8.846;2023-06-22T03:27:26;18.00;99.90
50586;DHT22;36542;51.700;8.846;2023-06-22T03:29:52;18.00;99.90
50586;DHT22;36542;51.700;8.846;2023-06-22T03:32:17;18.00;99.90
50586;DHT22;36542;51.700;8.846;2023-06-22T03:34:43;18.00;99.90
50586;DHT22;36542;51.700;8.846;2023-06-22T03:37:13;18.00;99.90
50586;DHT22;36542;51.700;8.846;2023-06-22T03:39:39;18.10;99.90
50586;DHT22;36542;51.700;8.846;2023-06-22T03:42:04;18.10;99.90
50586;DHT22;36542;51.700;8.846;2023-06-22T03:44:30;18.10;99.90
50586;DHT22;36542;51.700;8.846;2023-06-22T03:46:56;18.10;99.90
50586;DHT22;36542;51.700;8.846;2023-06-22T03:49:21;18.10;99.90
50586;DHT22;36542;51.700;8.846;2023-06-22T03:51:47;18.20;99.90
50586;DHT22;36542;51.700;8.846;2023-06-22T03:54:12;18.30;99.90
50586;DHT22;36542;51.700;8.846;2023-06-22T03:56:38;18.40;99.90
50586;DHT22;36542;51.700;8.846;2023-06-22T03:59:03;18.30;99.90
50586;DHT22;36542;51.700;8.846;2023-06-22T04:01:29;18.40;99.90
50586;DHT22;36542;51.700;8.846;2023-06-22T04:03:54;18.40;99.90
50586;DHT22;36542;51.700;8.846;2023-06-22T04:06:20;18.40;99.90
50586;DHT22;36542;51.700;8.846;2023-06-22T04:08:46;18.30;99.90
50586;DHT22;36542;51.700;8.846;2023-06-22T04:11:17;18.30;99.90
50586;DHT22;36542;51.700;8.846;2023-06-22T04:13:43;18.30;99.90
50586;DHT22;36542;51.700;8.846;2023-06-22T04:16:08;18.40;99.90
50586;DHT22;36542;51.700;8.846;2023-06-22T04:18:34;18.50;99.90
50586;DHT22;36542;51.700;8.846;2023-06-22T04:21:00;18.60;99.90
50586;DHT22;36542;51.700;8.846;2023-06-22T04:23:25;18.60;99.90
50586;DHT22;36542;51.700;8.846;2023-06-22T04:25:51;18.70;99.90
50586;DHT22;36542;51.700;8.846;2023-06-22T04:28:17;18.70;99.90
50586;DHT22;36542;51.700;8.846;2023-06-22T04:30:42;18.80;99.90
50586;DHT22;36542;51.700;8.846;2023-06-22T04:33:15;18.80;99.90
50586;DHT22;36542;51.700;8.846;2023-06-22T04:35:41;18.90;99.90
50586;DHT22;36542;51.700;8.846;2023-06-22T04:38:07;18.90;99.90
50586;DHT22;36542;51.700;8.846;2023-06-22T04:40:33;18.90;99.90
50586;DHT22;36542;51.700;8.846;2023-06-22T04:42:58;18.90;99.90
50586;DHT22;36542;51.700;8.846;2023-06-22T04:45:28;18.80;99.90
50586;DHT22;36542;51.700;8.846;2023-06-22T04:47:54;19.00;99.90
50586;DHT22;36542;51.700;8.846;2023-06-22T04:50:20;19.10;99.90
50586;DHT22;36542;51.700;8.846;2023-06-22T04:52:47;19.10;99.90
50586;DHT22;36542;51.700;8.846;2023-06-22T04:55:14;19.20;99.90
50586;DHT22;36542;51.700;8.846;2023-06-22T04:57:44;19.30;99.90
50586;DHT22;36542;51.700;8.846;2023-06-22T05:00:15;19.40;99.90
50586;DHT22;36542;51.700;8.846;2023-06-22T05:02:44;19.40;99.90
50586;DHT22;36542;51.700;8.846;2023-06-22T05:05:10;19.50;99.90
50586;DHT22;36542;51.700;8.846;2023-06-22T05:07:39;19.50;99.90
50586;DHT22;36542;51.700;8.846;2023-06-22T05:10:09;19.30;99.90
50586;DHT22;36542;51.700;8.846;2023-06-22T05:12:35;19.30;99.90
50586;DHT22;36542;51.700;8.846;2023-06-22T05:15:01;19.40;99.90
50586;DHT22;36542;51.700;8.846;2023-06-22T05:17:27;19.40;99.90
50586;DHT22;36542;51.700;8.846;2023-06-22T05:19:53;19.50;99.90
50586;DHT22;36542;51.700;8.846;2023-06-22T05:22:19;19.60;99.90
50586;DHT22;36542;51.700;8.846;2023-06-22T05:24:44;19.60;99.90
50586;DHT22;36542;51.700;8.846;2023-06-22T05:27:10;19.60;99.90
50586;DHT22;36542;51.700;8.846;2023-06-22T05:29:39;19.60;99.90
50586;DHT22;36542;51.700;8.846;2023-06-22T05:32:05;19.70;99.90
50586;DHT22;36542;51.700;8.846;2023-06-22T05:34:31;19.70;99.90
50586;DHT22;36542;51.700;8.846;2023-06-22T05:36:56;19.70;99.90
50586;DHT22;36542;51.700;8.846;2023-06-22T05:39:24;19.80;99.90
50586;DHT22;36542;51.700;8.846;2023-06-22T05:41:50;19.70;99.90
50586;DHT22;36542;51.700;8.846;2023-06-22T05:44:16;19.70;99.90
50586;DHT22;36542;51.700;8.846;2023-06-22T05:46:43;19.70;99.90
50586;DHT22;36542;51.700;8.846;2023-06-22T05:49:10;19.70;99.90
50586;DHT22;36542;51.700;8.846;2023-06-22T05:51:35;19.70;99.90
50586;DHT22;36542;51.700;8.846;2023-06-22T05:54:01;19.80;99.90
50586;DHT22;36542;51.700;8.846;2023-06-22T05:56:26;19.80;99.90
50586;DHT22;36542;51.700;8.846;2023-06-22T05:58:52;19.90;99.90
50586;DHT22;36542;51.700;8.846;2023-06-22T06:01:17;19.90;99.90
50586;DHT22;36542;51.700;8.846;2023-06-22T06:03:43;19.90;99.90
50586;DHT22;36542;51.700;8.846;2023-06-22T06:06:09;19.90;99.90
50586;DHT22;36542;51.700;8.846;2023-06-22T06:08:37;19.90;99.90
50586;DHT22;36542;51.700;8.846;2023-06-22T06:11:02;19.90;99.90
50586;DHT22;36542;51.700;8.846;2023-06-22T06:13:28;19.90;99.90
50586;DHT22;36542;51.700;8.846;2023-06-22T06:15:53;19.90;99.90
50586;DHT22;36542;51.700;8.846;2023-06-22T06:18:20;19.90;99.90
50586;DHT22;36542;51.700;8.846;2023-06-22T06:20:46;19.90;99.90
50586;DHT22;36542;51.700;8.846;2023-06-22T06:23:11;20.00;99.90
50586;DHT22;36542;51.700;8.846;2023-06-22T06:25:37;19.90;99.90
50586;DHT22;36542;51.700;8.846;2023-06-22T06:28:03;19.80;99.90
50586;DHT22;36542;51.700;8.846;2023-06-22T06:30:28;19.70;99.90
50586;DHT22;36542;51.700;8.846;2023-06-22T06:32:54;19.60;99.90
50586;DHT22;36542;51.700;8.846;2023-06-22T06:35:20;19.50;99.90
50586;DHT22;36542;51.700;8.846;2023-06-22T06:37:48;19.40;99.90
50586;DHT22;36542;51.700;8.846;2023-06-22T06:40:15;19.30;99.90
50586;DHT22;36542;51.700;8.846;2023-06-22T06:42:43;19.20;99.90
50586;DHT22;36542;51.700;8.846;2023-06-22T06:45:11;19.20;99.90
50586;DHT22;36542;51.700;8.846;2023-06-22T06:47:37;19.10;99.90
50586;DHT22;36542;51.700;8.846;2023-06-22T06:50:04;19.10;99.90
50586;DHT22;36542;51.700;8.846;2023-06-22T06:52:30;19.10;99.90
50586;DHT22;36542;51.700;8.846;2023-06-22T06:54:55;19.10;99.90
50586;DHT22;36542;51.700;8.846;2023-06-22T06:57:21;19.10;99.90
50586;DHT22;36542;51.700;8.846;2023-06-22T06:59:48;19.10;99.90
50586;DHT22;36542;51.700;8.846;2023-06-22T07:02:15;19.10;99.90
50586;DHT22;36542;51.700;8.846;2023-06-22T07:04:40;19.30;99.90
50586;DHT22;36542;51.700;8.846;2023-06-22T07:07:06;19.40;99.90
50586;DHT22;36542;51.700;8.846;2023-06-22T07:09:32;19.40;99.90
50586;DHT22;36542;51.700;8.846;2023-06-22T07:11:58;19.50;99.90
50586;DHT22;36542;51.700;8.846;2023-06-22T07:14:23;19.60;99.90
50586;DHT22;36542;51.700;8.846;2023-06-22T07:16:49;19.70;99.90
50586;DHT22;36542;51.700;8.846;2023-06-22T07:19:14;19.80;99.90
50586;DHT22;36542;51.700;8.846;2023-06-22T07:21:40;19.80;99.90
50586;DHT22;36542;51.700;8.846;2023-06-22T07:24:06;19.90;99.90
50586;DHT22;36542;51.700;8.846;2023-06-22T07:26:32;19.80;99.90
50586;DHT22;36542;51.700;8.846;2023-06-22T07:28:58;19.90;99.90
50586;DHT22;36542;51.700;8.846;2023-06-22T07:31:27;20.00;99.90
50586;DHT22;36542;51.700;8.846;2023-06-22T07:33:52;19.90;99.90
50586;DHT22;36542;51.700;8.846;2023-06-22T07:36:18;19.90;99.90
50586;DHT22;36542;51.700;8.846;2023-06-22T07:38:44;19.80;99.90
50586;DHT22;36542;51.700;8.846;2023-06-22T07:41:09;19.80;99.90
50586;DHT22;36542;51.700;8.846;2023-06-22T07:43:35;19.70;99.90
50586;DHT22;36542;51.700;8.846;2023-06-22T07:46:03;19.70;99.90
50586;DHT22;36542;51.700;8.846;2023-06-22T07:48:29;19.80;99.90
50586;DHT22;36542;51.700;8.846;2023-06-22T07:50:55;19.90;99.90
50586;DHT22;36542;51.700;8.846;2023-06-22T07:53:21;20.00;99.90
50586;DHT22;36542;51.700;8.846;2023-06-22T07:55:47;20.00;99.90
50586;DHT22;36542;51.700;8.846;2023-06-22T07:58:13;20.00;99.90
50586;DHT22;36542;51.700;8.846;2023-06-22T08:00:38;20.10;99.90
50586;DHT22;36542;51.700;8.846;2023-06-22T08:03:04;20.20;99.90
50586;DHT22;36542;51.700;8.846;2023-06-22T08:05:30;20.50;99.90
50586;DHT22;36542;51.700;8.846;2023-06-22T08:07:56;20.70;99.90
50586;DHT22;36542;51.700;8.846;2023-06-22T08:10:21;20.80;99.90
50586;DHT22;36542;51.700;8.846;2023-06-22T08:12:47;21.00;99.90
50586;DHT22;36542;51.700;8.846;2023-06-22T08:15:12;21.30;99.90
50586;DHT22;36542;51.700;8.846;2023-06-22T08:17:39;21.70;99.90
50586;DHT22;36542;51.700;8.846;2023-06-22T08:20:05;22.40;99.90
50586;DHT22;36542;51.700;8.846;2023-06-22T08:22:35;23.10;99.90
50586;DHT22;36542;51.700;8.846;2023-06-22T08:25:02;23.90;99.90
50586;DHT22;36542;51.700;8.846;2023-06-22T08:27:30;24.80;99.90
50586;DHT22;36542;51.700;8.846;2023-06-22T08:29:59;25.90;99.90
50586;DHT22;36542;51.700;8.846;2023-06-22T08:32:26;27.20;99.90
50586;DHT22;36542;51.700;8.846;2023-06-22T08:34:56;27.80;99.90
50586;DHT22;36542;51.700;8.846;2023-06-22T08:37:22;28.40;99.90
50586;DHT22;36542;51.700;8.846;2023-06-22T08:39:57;28.70;99.90
50586;DHT22;36542;51.700;8.846;2023-06-22T08:42:22;28.70;99.90
50586;DHT22;36542;51.700;8.846;2023-06-22T08:44:50;29.50;99.90
50586;DHT22;36542;51.700;8.846;2023-06-22T08:47:15;30.10;99.90
50586;DHT22;36542;51.700;8.846;2023-06-22T08:49:41;31.10;99.90
50586;DHT22;36542;51.700;8.846;2023-06-22T08:52:07;31.60;99.90
50586;DHT22;36542;51.700;8.846;2023-06-22T08:54:33;32.00;99.90
50586;DHT22;36542;51.700;8.846;2023-06-22T08:57:00;32.20;99.90
50586;DHT22;36542;51.700;8.846;2023-06-22T08:59:25;31.60;99.90
50586;DHT22;36542;51.700;8.846;2023-06-22T09:01:51;31.80;99.90
50586;DHT22;36542;51.700;8.846;2023-06-22T09:04:16;31.90;99.90
50586;DHT22;36542;51.700;8.846;2023-06-22T09:06:42;31.80;99.90
50586;DHT22;36542;51.700;8.846;2023-06-22T09:09:12;31.60;99.90
50586;DHT22;36542;51.700;8.846;2023-06-22T09:11:38;31.50;99.90
50586;DHT22;36542;51.700;8.846;2023-06-22T09:14:03;31.50;99.90
50586;DHT22;36542;51.700;8.846;2023-06-22T09:16:29;31.60;99.90
50586;DHT22;36542;51.700;8.846;2023-06-22T09:18:55;31.90;99.90
50586;DHT22;36542;51.700;8.846;2023-06-22T09:21:21;32.00;99.90
50586;DHT22;36542;51.700;8.846;2023-06-22T09:23:46;32.20;99.90
50586;DHT22;36542;51.700;8.846;2023-06-22T09:26:15;32.30;99.50
50586;DHT22;36542;51.700;8.846;2023-06-22T09:28:41;32.50;99.60
50586;DHT22;36542;51.700;8.846;2023-06-22T09:31:06;32.70;99.50
50586;DHT22;36542;51.700;8.846;2023-06-22T09:33:32;32.90;98.90
50586;DHT22;36542;51.700;8.846;2023-06-22T09:35:58;33.10;98.90
50586;DHT22;36542;51.700;8.846;2023-06-22T09:38:23;33.20;98.10
50586;DHT22;36542;51.700;8.846;2023-06-22T09:40:49;32.40;98.50
50586;DHT22;36542;51.700;8.846;2023-06-22T09:43:14;31.00;99.90
50586;DHT22;36542;51.700;8.846;2023-06-22T09:45:40;30.40;99.90
50586;DHT22;36542;51.700;8.846;2023-06-22T09:48:05;30.40;99.90
50586;DHT22;36542;51.700;8.846;2023-06-22T09:50:31;30.90;99.90
50586;DHT22;36542;51.700;8.846;2023-06-22T09:52:56;31.30;99.90
50586;DHT22;36542;51.700;8.846;2023-06-22T09:55:22;31.90;99.90
50586;DHT22;36542;51.700;8.846;2023-06-22T09:57:48;32.40;99.60
50586;DHT22;36542;51.700;8.846;2023-06-22T10:00:15;33.30;98.70
50586;DHT22;36542;51.700;8.846;2023-06-22T10:02:44;34.00;99.00
50586;DHT22;36542;51.700;8.846;2023-06-22T10:05:10;34.30;97.70
50586;DHT22;36542;51.700;8.846;2023-06-22T10:07:35;33.60;96.90
50586;DHT22;36542;51.700;8.846;2023-06-22T10:10:06;32.40;97.70
50586;DHT22;36542;51.700;8.846;2023-06-22T10:12:31;31.30;99.90
50586;DHT22;36542;51.700;8.846;2023-06-22T10:14:57;31.80;99.60
50586;DHT22;36542;51.700;8.846;2023-06-22T10:17:23;32.60;99.30
50586;DHT22;36542;51.700;8.846;2023-06-22T10:19:48;32.90;98.50
50586;DHT22;36542;51.700;8.846;2023-06-22T10:22:14;32.70;98.40
50586;DHT22;36542;51.700;8.846;2023-06-22T10:24:39;32.40;98.50
50586;DHT22;36542;51.700;8.846;2023-06-22T10:27:10;32.30;99.50
50586;DHT22;36542;51.700;8.846;2023-06-22T10:29:36;32.40;98.70
50586;DHT22;36542;51.700;8.846;2023-06-22T10:32:01;32.40;99.00
50586;DHT22;36542;51.700;8.846;2023-06-22T10:34:27;31.80;99.80
50586;DHT22;36542;51.700;8.846;2023-06-22T10:36:53;31.30;99.90
50586;DHT22;36542;51.700;8.846;2023-06-22T10:39:18;31.20;99.90
50586;DHT22;36542;51.700;8.846;2023-06-22T10:41:44;31.60;99.90
50586;DHT22;36542;51.700;8.846;2023-06-22T10:44:09;31.40;99.60
50586;DHT22;36542;51.700;8.846;2023-06-22T10:46:35;31.10;99.90
50586;DHT22;36542;51.700;8.846;2023-06-22T10:49:00;30.70;99.90
50586;DHT22;36542;51.700;8.846;2023-06-22T10:51:26;30.50;99.90
50586;DHT22;36542;51.700;8.846;2023-06-22T10:53:53;30.50;99.90
50586;DHT22;36542;51.700;8.846;2023-06-22T10:56:19;30.40;99.90
50586;DHT22;36542;51.700;8.846;2023-06-22T10:58:45;30.20;99.90
50586;DHT22;36542;51.700;8.846;2023-06-22T11:01:11;30.20;99.90
50586;DHT22;36542;51.700;8.846;2023-06-22T11:03:36;30.00;99.90
50586;DHT22;36542;51.700;8.846;2023-06-22T11:06:02;30.20;99.90
50586;DHT22;36542;51.700;8.846;2023-06-22T11:08:28;30.00;99.90
50586;DHT22;36542;51.700;8.846;2023-06-22T11:10:53;29.50;99.90
50586;DHT22;36542;51.700;8.846;2023-06-22T11:13:19;29.40;99.90
50586;DHT22;36542;51.700;8.846;2023-06-22T11:15:44;29.70;99.90
50586;DHT22;36542;51.700;8.846;2023-06-22T11:18:10;30.50;99.90
50586;DHT22;36542;51.700;8.846;2023-06-22T11:20:35;30.80;99.90
50586;DHT22;36542;51.700;8.846;2023-06-22T11:23:05;31.30;99.90
50586;DHT22;36542;51.700;8.846;2023-06-22T11:25:31;31.70;99.90
50586;DHT22;36542;51.700;8.846;2023-06-22T11:27:57;31.50;99.90
50586;DHT22;36542;51.700;8.846;2023-06-22T11:30:22;31.10;99.90
50586;DHT22;36542;51.700;8.846;2023-06-22T11:32:48;30.70;99.90
50586;DHT22;36542;51.700;8.846;2023-06-22T11:35:14;30.40;99.90
50586;DHT22;36542;51.700;8.846;2023-06-22T11:37:39;30.00;99.90
50586;DHT22;36542;51.700;8.846;2023-06-22T11:40:05;29.90;99.90
50586;DHT22;36542;51.700;8.846;2023-06-22T11:42:34;29.70;99.90
50586;DHT22;36542;51.700;8.846;2023-06-22T11:45:00;29.60;99.90
50586;DHT22;36542;51.700;8.846;2023-06-22T11:47:25;29.10;99.90
50586;DHT22;36542;51.700;8.846;2023-06-22T11:49:51;29.00;99.90
50586;DHT22;36542;51.700;8.846;2023-06-22T11:52:16;28.90;99.90
50586;DHT22;36542;51.700;8.846;2023-06-22T11:54:43;29.00;99.90
50586;DHT22;36542;51.700;8.846;2023-06-22T11:57:08;29.00;99.90
50586;DHT22;36542;51.700;8.846;2023-06-22T11:59:34;28.90;99.90
50586;DHT22;36542;51.700;8.846;2023-06-22T12:02:00;28.70;99.90
50586;DHT22;36542;51.700;8.846;2023-06-22T12:04:25;28.40;99.90
50586;DHT22;36542;51.700;8.846;2023-06-22T12:06:51;28.10;99.90
50586;DHT22;36542;51.700;8.846;2023-06-22T12:09:16;27.90;99.90
50586;DHT22;36542;51.700;8.846;2023-06-22T12:11:42;27.70;99.90
50586;DHT22;36542;51.700;8.846;2023-06-22T12:14:08;27.50;99.90
50586;DHT22;36542;51.700;8.846;2023-06-22T12:16:33;27.30;99.90
50586;DHT22;36542;51.700;8.846;2023-06-22T12:18:59;27.10;99.90
50586;DHT22;36542;51.700;8.846;2023-06-22T12:21:24;26.80;99.90
50586;DHT22;36542;51.700;8.846;2023-06-22T12:23:50;26.60;99.90
50586;DHT22;36542;51.700;8.846;2023-06-22T12:26:16;26.50;99.90
50586;DHT22;36542;51.700;8.846;2023-06-22T12:28:41;26.30;99.90
50586;DHT22;36542;51.700;8.846;2023-06-22T12:31:07;26.30;99.90
50586;DHT22;36542;51.700;8.846;2023-06-22T12:33:32;26.30;99.90
50586;DHT22;36542;51.700;8.846;2023-06-22T12:35:58;26.20;99.90
50586;DHT22;36542;51.700;8.846;2023-06-22T12:38:23;26.10;99.90
50586;DHT22;36542;51.700;8.846;2023-06-22T12:40:52;26.00;99.90
50586;DHT22;36542;51.700;8.846;2023-06-22T12:43:18;25.70;99.90
50586;DHT22;36542;51.700;8.846;2023-06-22T12:45:43;25.10;99.90
50586;DHT22;36542;51.700;8.846;2023-06-22T12:48:09;24.60;99.90
50586;DHT22;36542;51.700;8.846;2023-06-22T12:50:34;24.10;99.90
50586;DHT22;36542;51.700;8.846;2023-06-22T12:53:00;23.80;99.90
50586;DHT22;36542;51.700;8.846;2023-06-22T12:55:27;23.70;99.90
50586;DHT22;36542;51.700;8.846;2023-06-22T12:57:53;23.80;99.90
50586;DHT22;36542;51.700;8.846;2023-06-22T13:00:18;23.80;99.90
50586;DHT22;36542;51.700;8.846;2023-06-22T13:02:45;23.60;99.90
50586;DHT22;36542;51.700;8.846;2023-06-22T13:05:10;23.60;99.90
50586;DHT22;36542;51.700;8.846;2023-06-22T13:07:36;23.40;99.90
50586;DHT22;36542;51.700;8.846;2023-06-22T13:10:02;23.20;99.90
50586;DHT22;36542;51.700;8.846;2023-06-22T13:12:28;23.00;99.90
50586;DHT22;36542;51.700;8.846;2023-06-22T13:14:53;22.90;99.90
50586;DHT22;36542;51.700;8.846;2023-06-22T13:17:19;22.80;99.90
50586;DHT22;36542;51.700;8.846;2023-06-22T13:19:44;22.60;99.90
50586;DHT22;36542;51.700;8.846;2023-06-22T13:22:32;22.60;99.90
50586;DHT22;36542;51.700;8.846;2023-06-22T13:24:59;22.40;99.90
50586;DHT22;36542;51.700;8.846;2023-06-22T13:27:25;22.50;99.90
50586;DHT22;36542;51.700;8.846;2023-06-22T13:29:50;22.50;99.90
50586;DHT22;36542;51.700;8.846;2023-06-22T13:32:16;22.40;99.90
50586;DHT22;36542;51.700;8.846;2023-06-22T13:34:42;22.40;99.90
50586;DHT22;36542;51.700;8.846;2023-06-22T13:37:08;22.40;99.90
50586;DHT22;36542;51.700;8.846;2023-06-22T13:39:33;22.30;99.90
50586;DHT22;36542;51.700;8.846;2023-06-22T13:41:59;22.20;99.90
50586;DHT22;36542;51.700;8.846;2023-06-22T13:44:24;21.90;99.90
50586;DHT22;36542;51.700;8.846;2023-06-22T13:46:56;21.60;99.90
50586;DHT22;36542;51.700;8.846;2023-06-22T13:49:22;21.30;99.90
50586;DHT22;36542;51.700;8.846;2023-06-22T13:51:48;21.10;99.90
50586;DHT22;36542;51.700;8.846;2023-06-22T13:54:14;21.00;99.90
50586;DHT22;36542;51.700;8.846;2023-06-22T13:56:40;20.90;99.90
50586;DHT22;36542;51.700;8.846;2023-06-22T13:59:05;20.90;99.90
50586;DHT22;36542;51.700;8.846;2023-06-22T14:01:34;21.00;99.90
50586;DHT22;36542;51.700;8.846;2023-06-22T14:04:00;21.00;99.90
50586;DHT22;36542;51.700;8.846;2023-06-22T14:06:27;20.70;99.90
50586;DHT22;36542;51.700;8.846;2023-06-22T14:08:53;20.50;99.90
50586;DHT22;36542;51.700;8.846;2023-06-22T14:11:18;20.40;99.90
50586;DHT22;36542;51.700;8.846;2023-06-22T14:13:44;20.30;99.90
50586;DHT22;36542;51.700;8.846;2023-06-22T14:16:09;20.30;99.90
50586;DHT22;36542;51.700;8.846;2023-06-22T14:18:35;20.40;99.90
50586;DHT22;36542;51.700;8.846;2023-06-22T14:21:00;20.50;99.90
50586;DHT22;36542;51.700;8.846;2023-06-22T14:23:28;20.60;99.90
50586;DHT22;36542;51.700;8.846;2023-06-22T14:25:53;20.70;99.90
50586;DHT22;36542;51.700;8.846;2023-06-22T14:28:19;20.50;99.90
50586;DHT22;36542;51.700;8.846;2023-06-22T14:30:44;20.40;99.90
50586;DHT22;36542;51.700;8.846;2023-06-22T14:33:11;20.20;99.90
50586;DHT22;36542;51.700;8.846;2023-06-22T14:35:37;20.10;99.90
50586;DHT22;36542;51.700;8.846;2023-06-22T14:38:02;20.00;99.90
50586;DHT22;36542;51.700;8.846;2023-06-22T14:40:28;20.00;99.90
50586;DHT22;36542;51.700;8.846;2023-06-22T14:42:53;19.90;99.90
50586;DHT22;36542;51.700;8.846;2023-06-22T14:45:22;19.90;99.90
50586;DHT22;36542;51.700;8.846;2023-06-22T14:47:47;19.90;99.90
50586;DHT22;36542;51.700;8.846;2023-06-22T14:50:13;19.90;99.90
50586;DHT22;36542;51.700;8.846;2023-06-22T14:52:38;19.80;99.90
50586;DHT22;36542;51.700;8.846;2023-06-22T14:55:04;19.80;99.90
50586;DHT22;36542;51.700;8.846;2023-06-22T14:57:30;19.70;99.90
50586;DHT22;36542;51.700;8.846;2023-06-22T14:59:56;19.70;99.90
50586;DHT22;36542;51.700;8.846;2023-06-22T15:02:21;19.70;99.90
50586;DHT22;36542;51.700;8.846;2023-06-22T15:04:47;19.70;99.90
50586;DHT22;36542;51.700;8.846;2023-06-22T15:07:13;19.70;99.90
50586;DHT22;36542;51.700;8.846;2023-06-22T15:09:38;19.90;99.90
50586;DHT22;36542;51.700;8.846;2023-06-22T15:12:07;19.90;99.90
50586;DHT22;36542;51.700;8.846;2023-06-22T15:14:41;19.90;99.90
50586;DHT22;36542;51.700;8.846;2023-06-22T15:17:07;19.90;99.90
50586;DHT22;36542;51.700;8.846;2023-06-22T15:19:36;19.90;99.90
50586;DHT22;36542;51.700;8.846;2023-06-22T15:22:06;19.90;99.90
50586;DHT22;36542;51.700;8.846;2023-06-22T15:24:33;19.90;99.90
50586;DHT22;36542;51.700;8.846;2023-06-22T15:26:58;20.00;99.90
50586;DHT22;36542;51.700;8.846;2023-06-22T15:29:24;20.00;99.90
50586;DHT22;36542;51.700;8.846;2023-06-22T15:31:51;20.10;99.90
50586;DHT22;36542;51.700;8.846;2023-06-22T15:34:17;20.20;99.90